createdAt,value
2023-05-19T00:00:32.135Z,88.35
2023-05-19T00:03:49.938Z,88.42
2023-05-19T00:07:01.203Z,87.45
2023-05-19T00:10:08.060Z,86.45
2023-05-19T00:13:25.355Z,86.89
2023-05-19T00:16:40.000Z,86.40
2023-05-19T00:19:49.623Z,86.36
2023-05-19T00:23:04.561Z,85.99
2023-05-19T00:26:14.951Z,86.01
2023-05-19T00:29:47.736Z,86.49
2023-05-19T00:32:57.607Z,86.46
2023-05-19T00:39:51.929Z,87.23
2023-05-19T00:43:48.850Z,86.28
2023-05-19T00:47:04.626Z,86.12
2023-05-19T00:50:11.764Z,86.44
2023-05-19T00:53:40.030Z,86.71
2023-05-19T01:00:34.286Z,86.03
2023-05-19T01:03:50.749Z,87.06
2023-05-19T01:07:04.153Z,87.30
2023-05-19T01:10:24.080Z,87.99
2023-05-19T01:13:41.824Z,88.56
2023-05-19T01:17:12.440Z,88.90
2023-05-19T01:25:05.754Z,89.21
2023-05-19T01:28:24.121Z,88.13
2023-05-19T01:31:45.379Z,88.20
2023-05-19T01:35:01.020Z,88.04
2023-05-19T01:38:31.108Z,88.74
2023-05-19T01:42:19.031Z,89.59
2023-05-19T01:45:42.188Z,90.62
2023-05-19T01:48:52.385Z,90.45
2023-05-19T01:52:06.455Z,90.11
2023-05-19T01:55:17.491Z,90.05
2023-05-19T01:58:43.691Z,89.59
2023-05-19T02:01:58.946Z,90.03
2023-05-19T02:05:27.150Z,89.87
2023-05-19T02:08:50.180Z,90.62
2023-05-19T02:15:51.803Z,90.39
2023-05-19T02:19:32.855Z,90.80
2023-05-19T02:22:51.003Z,89.95
2023-05-19T02:26:08.881Z,88.85
2023-05-19T02:29:32.454Z,88.91
2023-05-19T02:32:56.308Z,89.88
2023-05-19T02:37:18.280Z,89.73
2023-05-19T02:40:33.985Z,90.46
2023-05-19T02:43:53.163Z,91.16
2023-05-19T02:47:12.406Z,90.61
2023-05-19T02:50:36.048Z,89.91
2023-05-19T02:53:48.643Z,89.47
2023-05-19T02:56:54.381Z,90.55
2023-05-19T03:00:05.976Z,91.05
2023-05-19T03:03:25.381Z,90.62
2023-05-19T03:06:49.614Z,89.93
2023-05-19T03:10:16.871Z,90.79
2023-05-19T03:13:57.374Z,91.45
2023-05-19T03:17:31.272Z,90.38
2023-05-19T03:20:45.715Z,90.01
2023-05-19T03:23:58.334Z,90.15
2023-05-19T03:27:06.191Z,90.68
2023-05-19T03:30:11.334Z,90.90
2023-05-19T03:33:14.976Z,91.37
2023-05-19T03:36:35.083Z,90.50
2023-05-19T03:39:47.148Z,89.40
2023-05-19T03:42:50.640Z,90.19
2023-05-19T03:45:59.173Z,90.13
2023-05-19T03:49:03.028Z,90.98
2023-05-19T03:52:07.542Z,90.45
2023-05-19T03:55:18.397Z,89.03
2023-05-19T03:58:29.953Z,88.08
2023-05-19T04:01:43.786Z,89.41
2023-05-19T04:04:52.005Z,89.48
2023-05-19T04:07:55.759Z,88.81
2023-05-19T04:11:18.890Z,89.54
2023-05-19T04:14:25.787Z,88.09
2023-05-19T04:17:57.485Z,87.72
2023-05-19T04:21:09.142Z,87.97
2023-05-19T04:24:28.805Z,88.53
2023-05-19T04:27:45.085Z,88.51
2023-05-19T04:30:57.933Z,88.36
2023-05-19T04:34:06.584Z,87.06
2023-05-19T04:37:10.776Z,86.88
2023-05-19T04:40:31.811Z,87.29
2023-05-19T04:43:42.528Z,87.11
2023-05-19T04:46:58.461Z,85.93
2023-05-19T04:50:06.673Z,86.46
2023-05-19T04:53:24.069Z,86.28
2023-05-19T04:56:36.050Z,86.31
2023-05-19T04:59:40.248Z,85.63
2023-05-19T05:02:44.088Z,84.34
2023-05-19T05:05:49.369Z,84.00
2023-05-19T05:08:53.864Z,84.63
2023-05-19T05:12:19.758Z,83.36
2023-05-19T05:15:39.021Z,85.84
2023-05-19T05:19:05.432Z,84.79
2023-05-19T05:22:52.803Z,84.32
2023-05-19T05:26:23.818Z,83.93
2023-05-19T05:33:33.333Z,83.20
2023-05-19T05:36:53.562Z,82.83
2023-05-19T05:40:36.760Z,83.25
2023-05-19T06:38:48.286Z,76.44
2023-05-19T10:05:35.974Z,62.29
2023-05-19T12:37:32.347Z,53.34
2023-05-19T12:42:19.392Z,53.33
2023-05-19T12:50:47.067Z,53.84
2023-05-19T12:54:19.313Z,54.44
2023-05-19T13:02:08.970Z,54.17
2023-05-19T13:17:27.213Z,52.53
2023-05-19T13:20:55.612Z,52.18
2023-05-19T13:24:23.963Z,52.58
2023-05-19T13:28:06.596Z,51.98
2023-05-19T13:31:19.541Z,49.46
2023-05-19T13:34:31.780Z,50.56
2023-05-19T13:38:01.766Z,50.33
2023-05-19T13:41:30.067Z,50.27
2023-05-19T13:45:22.931Z,50.23
2023-05-19T13:48:54.658Z,50.25
2023-05-19T13:52:45.694Z,50.61
2023-05-19T13:56:15.305Z,49.21
2023-05-19T13:59:27.284Z,50.18
2023-05-19T14:02:54.776Z,50.77
2023-05-19T14:06:17.951Z,50.04
2023-05-19T14:09:51.194Z,49.93
2023-05-19T14:16:20.915Z,49.51
2023-05-19T14:19:54.039Z,50.32
2023-05-19T14:31:18.489Z,48.20
2023-05-19T14:35:12.174Z,48.00
2023-05-19T14:38:31.326Z,47.88
2023-05-19T14:42:07.283Z,49.14
2023-05-19T14:45:22.393Z,48.79
2023-05-19T14:48:26.203Z,52.21
2023-05-19T14:51:32.137Z,49.72
2023-05-19T14:54:49.539Z,49.18
2023-05-19T14:58:19.959Z,49.65
2023-05-19T15:05:29.651Z,49.04
2023-05-19T15:09:01.392Z,49.43
2023-05-19T15:12:27.968Z,50.04
2023-05-19T15:16:32.079Z,49.85
2023-05-19T15:19:55.794Z,50.91
2023-05-19T15:23:22.372Z,49.08
2023-05-19T15:26:35.288Z,51.06
2023-05-19T15:29:53.720Z,48.82
2023-05-19T15:33:00.324Z,47.50
2023-05-19T15:36:03.993Z,47.89
2023-05-19T15:39:08.577Z,48.18
2023-05-19T15:42:13.602Z,48.40
2023-05-19T15:45:27.622Z,49.31
2023-05-19T15:48:53.010Z,49.85
2023-05-19T15:52:03.975Z,49.77
2023-05-19T15:55:14.809Z,49.27
2023-05-19T15:58:25.752Z,49.55
2023-05-19T16:05:17.455Z,49.42
2023-05-19T16:08:33.025Z,49.27
2023-05-19T16:11:38.766Z,48.86
2023-05-19T16:15:04.122Z,50.30
2023-05-19T16:18:17.748Z,49.48
2023-05-19T16:21:24.413Z,49.57
2023-05-19T16:25:24.787Z,49.96
2023-05-19T16:28:25.536Z,49.25
2023-05-19T16:31:54.393Z,49.80
2023-05-19T16:35:34.436Z,50.76
2023-05-19T16:38:40.239Z,50.88
2023-05-19T16:42:05.831Z,51.28
2023-05-19T16:45:39.001Z,51.45
2023-05-19T16:52:58.812Z,51.40
2023-05-19T16:57:55.474Z,51.59
2023-05-19T17:14:54.089Z,52.67
2023-05-19T17:18:36.568Z,52.93
2023-05-19T17:21:46.101Z,53.48
2023-05-19T17:25:19.961Z,53.71
2023-05-19T17:28:49.848Z,54.03
2023-05-19T17:31:57.879Z,54.73
2023-05-19T17:35:07.666Z,54.46
2023-05-19T17:38:19.757Z,54.58
2023-05-19T17:41:39.289Z,54.93
2023-05-19T17:44:45.034Z,54.69
2023-05-19T17:47:52.292Z,54.79
2023-05-19T17:51:22.833Z,55.50
2023-05-19T17:54:57.401Z,57.61
2023-05-19T17:58:29.936Z,57.24
2023-05-19T18:05:53.150Z,60.91
2023-05-19T18:09:29.283Z,61.98
2023-05-19T18:21:11.916Z,63.34
2023-05-19T19:23:23.235Z,69.33
2023-05-19T19:26:48.316Z,69.83
2023-05-19T19:36:13.513Z,70.74
2023-05-19T19:37:52.053Z,70.41
2023-05-19T19:42:05.734Z,70.50
2023-05-19T19:45:43.308Z,70.92
2023-05-19T19:50:29.012Z,70.83
2023-05-19T20:04:56.697Z,69.58
2023-05-19T20:08:32.217Z,70.78
2023-05-19T20:11:52.584Z,70.93
2023-05-19T20:15:24.014Z,70.50
2023-05-19T20:19:04.334Z,71.02
2023-05-19T20:22:28.897Z,71.62
2023-05-19T20:29:26.826Z,72.81
2023-05-19T20:32:36.768Z,73.08
2023-05-19T20:36:00.472Z,73.73
2023-05-19T20:39:27.941Z,73.77
2023-05-19T20:42:49.124Z,74.21
2023-05-19T20:49:43.365Z,74.73
2023-05-19T20:52:57.772Z,74.66
2023-05-19T20:56:10.425Z,74.56
2023-05-19T21:03:03.281Z,74.94
2023-05-19T21:06:33.182Z,74.97
2023-05-19T21:14:48.289Z,75.52
2023-05-19T21:18:48.407Z,75.87
2023-05-19T21:27:43.663Z,76.08
2023-05-19T21:44:36.407Z,77.05
2023-05-19T21:48:00.531Z,77.24
2023-05-19T21:51:20.060Z,77.02
2023-05-19T21:54:46.956Z,77.17
2023-05-19T21:58:32.550Z,77.64
2023-05-19T22:02:10.534Z,77.84
2023-05-19T22:05:58.614Z,77.86
2023-05-19T22:10:01.197Z,77.99
2023-05-19T22:21:46.384Z,78.42
2023-05-19T22:25:01.841Z,78.50
2023-05-19T22:28:28.249Z,78.28
2023-05-19T22:32:00.999Z,77.95
2023-05-19T22:35:22.900Z,78.28
2023-05-19T22:38:33.051Z,78.62
2023-05-19T22:41:49.848Z,78.44
2023-05-19T22:45:02.942Z,78.37
2023-05-19T22:48:15.410Z,78.78
2023-05-19T22:51:57.737Z,79.10
2023-05-19T22:59:20.481Z,79.55
2023-05-19T23:02:58.331Z,79.45
2023-05-19T23:11:46.603Z,80.19
2023-05-19T23:47:05.265Z,81.41
2023-05-19T23:50:49.026Z,81.70
2023-05-19T23:54:44.029Z,82.04
